createdAt,value
2023-03-05T00:01:04.726Z,97776.22
2023-03-05T00:06:06.664Z,97771.66
2023-03-05T00:11:11.198Z,97773.34
2023-03-05T00:16:15.282Z,97764.72
2023-03-05T00:21:27.914Z,97782.06
2023-03-05T00:26:31.082Z,97768.31
2023-03-05T00:31:34.021Z,97768.03
2023-03-05T00:36:40.182Z,97766.31
2023-03-05T00:41:41.595Z,97753.31
2023-03-05T00:46:43.121Z,97754.41
2023-03-05T00:51:44.650Z,97748.41
2023-03-05T00:56:47.327Z,97738.03
2023-03-05T01:01:48.793Z,97727.78
2023-03-05T01:06:50.244Z,97728.28
2023-03-05T01:11:52.201Z,97711.94
2023-03-05T01:16:54.419Z,97703.47
2023-03-05T01:21:56.044Z,97705.84
2023-03-05T01:26:57.979Z,97712.88
2023-03-05T01:31:59.656Z,97699.28
2023-03-05T01:37:01.122Z,97698.56
2023-03-05T01:42:03.386Z,97698.97
2023-03-05T01:47:05.134Z,97694.66
2023-03-05T01:52:19.856Z,97692.44
2023-03-05T01:57:26.696Z,97683.97
2023-03-05T02:02:28.332Z,97680.63
2023-03-05T02:07:31.518Z,97690.31
2023-03-05T02:12:32.849Z,97677.88
2023-03-05T02:17:34.287Z,97683.25
2023-03-05T02:22:35.699Z,97662.63
2023-03-05T02:27:37.270Z,97666.84
2023-03-05T02:32:38.950Z,97661.25
2023-03-05T02:37:40.928Z,97655.16
2023-03-05T02:42:43.143Z,97650.59
2023-03-05T02:47:46.642Z,97649.06
2023-03-05T02:52:48.215Z,97644.88
2023-03-05T02:57:51.053Z,97651.25
2023-03-05T03:02:52.653Z,97648.75
2023-03-05T03:07:54.184Z,97652.34
2023-03-05T03:12:55.656Z,97640.75
2023-03-05T03:17:57.103Z,97634.63
2023-03-05T03:22:58.606Z,97632.00
2023-03-05T03:28:00.080Z,97634.63
2023-03-05T03:33:01.505Z,97634.91
2023-03-05T03:38:03.158Z,97627.41
2023-03-05T03:43:04.655Z,97628.94
2023-03-05T03:48:06.069Z,97620.34
2023-03-05T03:53:08.269Z,97618.69
2023-03-05T03:58:09.853Z,97610.34
2023-03-05T04:03:11.334Z,97614.91
2023-03-05T04:08:12.789Z,97607.13
2023-03-05T04:13:14.255Z,97609.66
2023-03-05T04:18:15.712Z,97607.28
2023-03-05T04:23:17.882Z,97599.13
2023-03-05T04:28:19.433Z,97586.81
2023-03-05T04:33:20.906Z,97578.38
2023-03-05T04:38:22.570Z,97580.53
2023-03-05T04:43:24.098Z,97572.75
2023-03-05T04:48:25.509Z,97561.88
2023-03-05T04:53:26.990Z,97589.19
2023-03-05T04:58:28.866Z,97572.88
2023-03-05T05:03:30.888Z,97571.84
2023-03-05T05:08:32.546Z,97568.78
2023-03-05T05:13:34.546Z,97567.09
2023-03-05T05:18:36.027Z,97560.91
2023-03-05T05:23:37.840Z,97586.09
2023-03-05T05:28:41.742Z,97564.81
2023-03-05T05:33:43.911Z,97558.47
2023-03-05T05:38:45.840Z,97558.34
2023-03-05T05:43:47.897Z,97559.66
2023-03-05T05:48:49.359Z,97553.88
2023-03-05T05:53:51.069Z,97560.69
2023-03-05T05:58:52.477Z,97564.56
2023-03-05T06:03:54.672Z,97564.50
2023-03-05T06:08:56.563Z,97550.59
2023-03-05T06:13:58.173Z,97558.94
2023-03-05T06:19:00.044Z,97550.81
2023-03-05T06:24:01.570Z,97547.75
2023-03-05T06:29:03.767Z,97543.06
2023-03-05T06:34:05.282Z,97544.31
2023-03-05T06:39:06.880Z,97549.81
2023-03-05T06:44:08.291Z,97556.47
2023-03-05T06:49:09.877Z,97553.47
2023-03-05T06:54:14.431Z,97544.16
2023-03-05T06:59:16.885Z,97540.13
2023-03-05T07:04:18.341Z,97537.78
2023-03-05T07:09:19.820Z,97542.19
2023-03-05T07:14:22.396Z,97540.00
2023-03-05T07:19:23.974Z,97537.81
2023-03-05T07:24:29.731Z,97542.09
2023-03-05T07:29:31.185Z,97540.84
2023-03-05T07:34:32.748Z,97531.41
2023-03-05T07:39:34.247Z,97534.72
2023-03-05T07:44:36.051Z,97540.97
2023-03-05T07:49:40.522Z,97550.81
2023-03-05T07:54:42.494Z,97537.00
2023-03-05T07:59:44.336Z,97536.56
2023-03-05T08:04:48.733Z,97527.66
2023-03-05T08:09:51.597Z,97535.06
2023-03-05T08:14:59.614Z,97526.41
2023-03-05T08:20:11.216Z,97525.13
2023-03-05T08:25:21.751Z,97522.59
2023-03-05T08:30:31.478Z,97517.00
2023-03-05T08:35:36.142Z,97516.63
2023-03-05T08:40:48.141Z,97508.09
2023-03-05T08:45:51.200Z,97512.91
2023-03-05T08:51:07.042Z,97507.22
2023-03-05T08:56:09.023Z,97501.44
2023-03-05T09:01:11.384Z,97500.03
2023-03-05T09:06:13.100Z,97495.38
2023-03-05T09:11:18.891Z,97495.94
2023-03-05T09:16:21.833Z,97490.59
2023-03-05T09:21:23.445Z,97491.00
2023-03-05T09:26:25.389Z,97481.72
2023-03-05T09:31:26.993Z,97484.19
2023-03-05T09:36:30.306Z,97480.56
2023-03-05T09:42:10.207Z,97481.44
2023-03-05T09:47:46.127Z,97474.78
2023-03-05T09:52:55.333Z,97470.13
2023-03-05T09:58:03.755Z,97474.06
2023-03-05T10:03:12.115Z,97460.75
2023-03-05T10:08:16.261Z,97453.31
2023-03-05T10:13:32.590Z,97445.81
2023-03-05T10:18:46.077Z,97431.38
2023-03-05T10:24:15.578Z,97423.72
2023-03-05T10:29:35.775Z,97441.19
2023-03-05T10:35:06.526Z,97429.66
2023-03-05T10:40:32.537Z,97421.63
2023-03-05T10:45:41.753Z,97418.31
2023-03-05T10:50:48.472Z,97416.25
2023-03-05T10:55:56.409Z,97412.56
2023-03-05T11:00:58.352Z,97413.81
2023-03-05T11:06:05.696Z,97398.84
2023-03-05T11:11:10.468Z,97404.09
2023-03-05T11:16:20.860Z,97391.22
2023-03-05T11:21:29.130Z,97383.63
2023-03-05T11:26:30.810Z,97378.34
2023-03-05T11:31:33.064Z,97373.09
2023-03-05T11:36:42.958Z,97378.19
2023-03-05T11:41:58.035Z,97367.00
2023-03-05T11:47:18.157Z,97353.16
2023-03-05T11:52:25.864Z,97359.34
2023-03-05T11:57:33.038Z,97356.03
2023-03-05T12:02:34.542Z,97347.47
2023-03-05T12:07:42.280Z,97329.19
2023-03-05T12:12:55.798Z,97332.34
2023-03-05T12:18:23.982Z,97321.63
2023-03-05T12:23:27.920Z,97311.94
2023-03-05T12:28:32.010Z,97308.03
2023-03-05T12:33:37.250Z,97290.28
2023-03-05T12:38:39.252Z,97282.78
2023-03-05T12:43:42.396Z,97287.53
2023-03-05T12:48:44.721Z,97290.91
2023-03-05T12:53:50.730Z,97283.19
2023-03-05T12:58:55.094Z,97279.63
2023-03-05T13:04:00.787Z,97282.72
2023-03-05T13:09:03.997Z,97271.16
2023-03-05T13:14:25.290Z,97256.31
2023-03-05T13:19:28.039Z,97249.97
2023-03-05T13:24:30.923Z,97252.31
2023-03-05T13:29:32.426Z,97241.78
2023-03-05T13:34:46.855Z,97242.19
2023-03-05T13:39:55.348Z,97238.97
2023-03-05T13:44:59.792Z,97226.16
2023-03-05T13:50:21.944Z,97216.28
2023-03-05T13:55:23.428Z,97219.22
2023-03-05T14:00:34.654Z,97215.38
2023-03-05T14:05:36.914Z,97198.06
2023-03-05T14:10:38.834Z,97202.13
2023-03-05T14:15:40.476Z,97196.75
2023-03-05T14:21:00.946Z,97211.72
2023-03-05T14:26:31.712Z,97215.66
2023-03-05T14:31:45.018Z,97214.72
2023-03-05T14:36:49.879Z,97203.84
2023-03-05T14:41:51.365Z,97200.50
2023-03-05T14:46:52.850Z,97210.75
2023-03-05T14:51:54.297Z,97203.13
2023-03-05T14:56:55.748Z,97207.97
2023-03-05T15:01:57.644Z,97199.41
2023-03-05T15:06:59.107Z,97204.66
2023-03-05T15:12:00.532Z,97199.94
2023-03-05T15:17:01.994Z,97184.72
2023-03-05T15:22:03.472Z,97177.25
2023-03-05T15:27:06.218Z,97170.75
2023-03-05T15:32:08.192Z,97167.03
2023-03-05T15:37:12.521Z,97158.28
2023-03-05T15:42:14.041Z,97164.25
2023-03-05T15:47:15.575Z,97157.88
2023-03-05T15:52:17.019Z,97167.56
2023-03-05T15:57:22.249Z,97155.94
2023-03-05T16:02:24.979Z,97156.78
2023-03-05T16:07:26.834Z,97160.63
2023-03-05T16:12:33.195Z,97153.72
2023-03-05T16:17:34.763Z,97147.47
2023-03-05T16:22:36.278Z,97151.22
2023-03-05T16:27:37.947Z,97142.06
2023-03-05T16:32:39.467Z,97139.44
2023-03-05T16:37:41.328Z,97141.78
2023-03-05T16:42:43.103Z,97138.88
2023-03-05T16:47:44.571Z,97144.84
2023-03-05T16:52:46.092Z,97141.22
2023-03-05T16:57:47.564Z,97148.00
2023-03-05T17:02:48.991Z,97149.13
2023-03-05T17:07:50.444Z,97146.50
2023-03-05T17:12:52.636Z,97155.34
2023-03-05T17:17:54.223Z,97145.22
2023-03-05T17:22:55.775Z,97138.72
2023-03-05T17:27:57.216Z,97144.53
2023-03-05T17:32:59.362Z,97141.63
2023-03-05T17:38:04.240Z,97148.69
2023-03-05T17:43:05.987Z,97146.75
2023-03-05T17:48:08.575Z,97143.56
2023-03-05T17:53:10.067Z,97147.56
2023-03-05T17:58:11.575Z,97146.47
2023-03-05T18:03:13.001Z,97152.69
2023-03-05T18:08:14.485Z,97151.69
2023-03-05T18:13:16.446Z,97148.41
2023-03-05T18:18:18.431Z,97152.38
2023-03-05T18:23:22.723Z,97144.50
2023-03-05T18:28:25.768Z,97141.16
2023-03-05T18:33:27.276Z,97140.06
2023-03-05T18:38:29.885Z,97135.34
2023-03-05T18:43:31.634Z,97130.91
2023-03-05T18:48:33.106Z,97131.19
2023-03-05T18:53:34.534Z,97128.63
2023-03-05T18:58:36.483Z,97145.19
2023-03-05T19:03:37.968Z,97145.59
2023-03-05T19:08:39.636Z,97150.75
2023-03-05T19:13:48.809Z,97138.88
2023-03-05T19:19:24.443Z,97130.19
2023-03-05T19:24:29.007Z,97129.50
2023-03-05T19:29:32.780Z,97134.91
2023-03-05T19:34:34.659Z,97127.28
2023-03-05T19:39:36.110Z,97124.44
2023-03-05T19:44:37.610Z,97128.53
2023-03-05T19:49:39.173Z,97111.19
2023-03-05T19:54:40.728Z,97110.63
2023-03-05T19:59:43.970Z,97097.59
2023-03-05T20:04:45.433Z,97099.00
2023-03-05T20:09:47.472Z,97094.47
2023-03-05T20:14:48.954Z,97080.38
2023-03-05T20:19:50.369Z,97091.22
2023-03-05T20:24:51.819Z,97081.50
2023-03-05T20:29:53.242Z,97078.75
2023-03-05T20:34:56.082Z,97080.78
2023-03-05T20:39:57.506Z,97066.34
2023-03-05T20:44:59.015Z,97061.31
2023-03-05T20:50:00.479Z,97048.09
2023-03-05T20:55:03.554Z,97048.81
2023-03-05T21:00:07.760Z,97041.72
2023-03-05T21:05:09.737Z,97025.00
2023-03-05T21:10:12.093Z,97025.94
2023-03-05T21:15:16.652Z,97022.50
2023-03-05T21:20:21.844Z,97021.13
2023-03-05T21:25:27.379Z,97023.38
2023-03-05T21:30:58.879Z,97016.75
2023-03-05T21:36:00.397Z,97006.53
2023-03-05T21:41:02.318Z,96999.56
2023-03-05T21:46:04.234Z,96989.25
2023-03-05T21:51:28.803Z,96975.13
2023-03-05T21:56:33.315Z,96977.91
2023-03-05T22:01:34.801Z,96972.66
2023-03-05T22:06:36.230Z,96979.03
2023-03-05T22:11:40.519Z,96978.94
2023-03-05T22:16:42.067Z,96977.72
2023-03-05T22:21:43.628Z,96965.72
2023-03-05T22:26:45.033Z,96956.16
2023-03-05T22:31:46.448Z,96952.56
2023-03-05T22:36:47.869Z,96952.56
2023-03-05T22:41:49.280Z,96949.94
2023-03-05T22:46:50.722Z,96957.66
2023-03-05T22:51:52.161Z,96950.59
2023-03-05T22:56:53.589Z,96949.31
2023-03-05T23:01:55.012Z,96953.63
2023-03-05T23:06:56.462Z,96948.06
2023-03-05T23:11:58.102Z,96940.97
2023-03-05T23:16:59.533Z,96935.41
2023-03-05T23:22:00.955Z,96936.31
2023-03-05T23:27:05.319Z,96931.41
2023-03-05T23:32:06.901Z,96932.09
2023-03-05T23:37:08.386Z,96937.38
2023-03-05T23:42:09.790Z,96935.72
2023-03-05T23:47:11.338Z,96945.56
2023-03-05T23:52:12.734Z,96933.00
2023-03-05T23:57:14.178Z,96928.03
